ITY204 LIRA-LIEE
Flight info
| Callsign | ITY204 |
|---|---|
| Flight time | 0h 47m |
| Altitude | 29000 |
| Route | ESINO DCT ABIDU DCT ADRUX Q125 KOVAS |
| Aircraft | A21N/M-SDE3FGHIRWY/LB1 |
Departure
| Time | 2026-04-30 20:16 |
|---|---|
| Airport | Ciampino–G. B. Pastine International Airport (LIRA) |
Arrival
| Time | 2026-04-30 21:03 |
|---|---|
| Airport | Cagliari Elmas Airport (LIEE) |
| Time | Latitude | Longitude | Altitude | Speed | Heading |
|---|---|---|---|---|---|
| 2026-04-30 19:52 | 41.80041 | 12.58972 | 378 ft | 0 kts | 124° |
| 2026-04-30 20:03 | 41.80047 | 12.58960 | 378 ft | 2 kts | 123° |
| 2026-04-30 20:03 | 41.80055 | 12.58944 | 377 ft | 1 kts | 123° |
| 2026-04-30 20:03 | 41.80060 | 12.58933 | 377 ft | 2 kts | 119° |
| 2026-04-30 20:04 | 41.80065 | 12.58914 | 376 ft | 2 kts | 97° |
| 2026-04-30 20:04 | 41.80065 | 12.58893 | 376 ft | 2 kts | 80° |
| 2026-04-30 20:04 | 41.80060 | 12.58874 | 376 ft | 2 kts | 63° |
| 2026-04-30 20:05 | 41.80052 | 12.58858 | 376 ft | 0 kts | 51° |
| 2026-04-30 20:08 | 41.80066 | 12.58882 | 376 ft | 8 kts | 52° |
| 2026-04-30 20:08 | 41.80104 | 12.58945 | 376 ft | 9 kts | 52° |
| 2026-04-30 20:09 | 41.80145 | 12.59018 | 377 ft | 10 kts | 53° |
| 2026-04-30 20:09 | 41.80188 | 12.59078 | 377 ft | 8 kts | 23° |
| 2026-04-30 20:09 | 41.80343 | 12.59001 | 371 ft | 15 kts | 333° |
| 2026-04-30 20:10 | 41.80567 | 12.58845 | 363 ft | 20 kts | 333° |
| 2026-04-30 20:10 | 41.80653 | 12.58785 | 360 ft | 7 kts | 333° |
| 2026-04-30 20:10 | 41.80682 | 12.58768 | 360 ft | 0 kts | 341° |
| 2026-04-30 20:12 | 41.80703 | 12.58764 | 359 ft | 7 kts | 4° |
| 2026-04-30 20:12 | 41.80730 | 12.58782 | 359 ft | 0 kts | 44° |
| 2026-04-30 20:13 | 41.80744 | 12.58804 | 359 ft | 10 kts | 54° |
| 2026-04-30 20:13 | 41.80761 | 12.58893 | 360 ft | 9 kts | 104° |
| 2026-04-30 20:13 | 41.80733 | 12.58933 | 361 ft | 1 kts | 152° |
| 2026-04-30 20:13 | 41.80732 | 12.58933 | 361 ft | 0 kts | 152° |
| 2026-04-30 20:15 | 41.80626 | 12.59008 | 364 ft | 50 kts | 152° |
| 2026-04-30 20:15 | 41.80108 | 12.59366 | 386 ft | 114 kts | 152° |
| 2026-04-30 20:15 | 41.79237 | 12.59963 | 473 ft | 158 kts | 152° |
| 2026-04-30 20:16 | 41.78224 | 12.60609 | 909 ft | 165 kts | 154° |
| 2026-04-30 20:16 | 41.77141 | 12.61201 | 1455 ft | 172 kts | 157° |
| 2026-04-30 20:16 | 41.76018 | 12.61660 | 2112 ft | 171 kts | 172° |
| 2026-04-30 20:16 | 41.74862 | 12.61279 | 2468 ft | 182 kts | 216° |
| 2026-04-30 20:17 | 41.74122 | 12.59845 | 2728 ft | 198 kts | 253° |
| 2026-04-30 20:17 | 41.73870 | 12.57978 | 3061 ft | 211 kts | 259° |
| 2026-04-30 20:17 | 41.73365 | 12.56045 | 3375 ft | 229 kts | 250° |
| 2026-04-30 20:17 | 41.73073 | 12.53897 | 3757 ft | 243 kts | 278° |
| 2026-04-30 20:18 | 41.73584 | 12.51782 | 4463 ft | 242 kts | 297° |
| 2026-04-30 20:18 | 41.74300 | 12.49775 | 5249 ft | 242 kts | 297° |
| 2026-04-30 20:18 | 41.74951 | 12.47723 | 6017 ft | 243 kts | 294° |
| 2026-04-30 20:18 | 41.75528 | 12.45616 | 6786 ft | 243 kts | 292° |
| 2026-04-30 20:19 | 41.76060 | 12.43476 | 7539 ft | 245 kts | 291° |
| 2026-04-30 20:19 | 41.76575 | 12.41303 | 8260 ft | 247 kts | 291° |
| 2026-04-30 20:19 | 41.77081 | 12.39068 | 8863 ft | 255 kts | 290° |
| 2026-04-30 20:19 | 41.77591 | 12.36734 | 9244 ft | 272 kts | 289° |
| 2026-04-30 20:20 | 41.78133 | 12.34230 | 9791 ft | 281 kts | 289° |
| 2026-04-30 20:20 | 41.78673 | 12.31717 | 10508 ft | 284 kts | 289° |
| 2026-04-30 20:20 | 41.79232 | 12.29127 | 10935 ft | 297 kts | 289° |
| 2026-04-30 20:20 | 41.79638 | 12.26322 | 11275 ft | 317 kts | 272° |
| 2026-04-30 20:21 | 41.79150 | 12.23391 | 11874 ft | 329 kts | 248° |
| 2026-04-30 20:21 | 41.77795 | 12.20934 | 12573 ft | 338 kts | 225° |
| 2026-04-30 20:21 | 41.75963 | 12.18981 | 13261 ft | 341 kts | 221° |
| 2026-04-30 20:21 | 41.74061 | 12.17019 | 13879 ft | 344 kts | 222° |
| 2026-04-30 20:22 | 41.72184 | 12.15067 | 14480 ft | 347 kts | 222° |
| 2026-04-30 20:22 | 41.70262 | 12.13049 | 14993 ft | 353 kts | 223° |
| 2026-04-30 20:22 | 41.68339 | 12.11021 | 15492 ft | 358 kts | 223° |
| 2026-04-30 20:22 | 41.66357 | 12.08930 | 16068 ft | 361 kts | 223° |
| 2026-04-30 20:23 | 41.64383 | 12.06846 | 16647 ft | 364 kts | 223° |
| 2026-04-30 20:23 | 41.62402 | 12.04755 | 17200 ft | 366 kts | 223° |
| 2026-04-30 20:23 | 41.60410 | 12.02654 | 17741 ft | 369 kts | 224° |
| 2026-04-30 20:23 | 41.58407 | 12.00541 | 18269 ft | 371 kts | 224° |
| 2026-04-30 20:24 | 41.56359 | 11.98372 | 18797 ft | 374 kts | 224° |
| 2026-04-30 20:24 | 41.54320 | 11.96214 | 19324 ft | 376 kts | 224° |
| 2026-04-30 20:24 | 41.52287 | 11.94064 | 19820 ft | 378 kts | 224° |
| 2026-04-30 20:24 | 41.50222 | 11.91881 | 20306 ft | 380 kts | 224° |
| 2026-04-30 20:25 | 41.46059 | 11.87490 | 21264 ft | 384 kts | 225° |
| 2026-04-30 20:25 | 41.43960 | 11.85279 | 21711 ft | 386 kts | 225° |
| 2026-04-30 20:26 | 41.39827 | 11.80719 | 22598 ft | 384 kts | 233° |
| 2026-04-30 20:26 | 41.37148 | 11.74819 | 23477 ft | 369 kts | 255° |
| 2026-04-30 20:26 | 41.36277 | 11.71634 | 23926 ft | 370 kts | 256° |
| 2026-04-30 20:27 | 41.34550 | 11.65144 | 24729 ft | 373 kts | 256° |
| 2026-04-30 20:27 | 41.32803 | 11.58665 | 25479 ft | 377 kts | 256° |
| 2026-04-30 20:28 | 41.31013 | 11.52082 | 26223 ft | 380 kts | 256° |
| 2026-04-30 20:28 | 41.29207 | 11.45475 | 26958 ft | 382 kts | 256° |
| 2026-04-30 20:29 | 41.27388 | 11.38841 | 27596 ft | 386 kts | 256° |
| 2026-04-30 20:30 | 41.24617 | 11.28777 | 28575 ft | 390 kts | 255° |
| 2026-04-30 20:30 | 41.21822 | 11.18666 | 29116 ft | 391 kts | 255° |
| 2026-04-30 20:31 | 41.19012 | 11.08538 | 29113 ft | 390 kts | 255° |
| 2026-04-30 20:32 | 41.14325 | 10.91740 | 29118 ft | 389 kts | 255° |
| 2026-04-30 20:33 | 41.11502 | 10.81678 | 29121 ft | 390 kts | 255° |
| 2026-04-30 20:34 | 41.08676 | 10.71638 | 29115 ft | 388 kts | 255° |
| 2026-04-30 20:35 | 41.05843 | 10.61618 | 29110 ft | 389 kts | 255° |
| 2026-04-30 20:35 | 41.02982 | 10.51539 | 29121 ft | 391 kts | 255° |
| 2026-04-30 20:36 | 41.01078 | 10.44855 | 29122 ft | 390 kts | 254° |
| 2026-04-30 20:37 | 40.98204 | 10.34797 | 29131 ft | 391 kts | 253° |
| 2026-04-30 20:37 | 40.96280 | 10.28091 | 29135 ft | 390 kts | 254° |
| 2026-04-30 20:38 | 40.94356 | 10.21400 | 29121 ft | 390 kts | 254° |
| 2026-04-30 20:38 | 40.92426 | 10.14706 | 29123 ft | 391 kts | 254° |
| 2026-04-30 20:39 | 40.89519 | 10.04653 | 29133 ft | 391 kts | 254° |
| 2026-04-30 20:40 | 40.86601 | 9.94603 | 29136 ft | 390 kts | 254° |
| 2026-04-30 20:40 | 40.84659 | 9.87942 | 29137 ft | 390 kts | 254° |
| 2026-04-30 20:41 | 40.81751 | 9.77984 | 29137 ft | 389 kts | 254° |
| 2026-04-30 20:41 | 40.79800 | 9.71330 | 29075 ft | 390 kts | 254° |
| 2026-04-30 20:42 | 40.78825 | 9.68009 | 28696 ft | 388 kts | 254° |
| 2026-04-30 20:42 | 40.77842 | 9.64698 | 28264 ft | 387 kts | 252° |
| 2026-04-30 20:42 | 40.74421 | 9.59211 | 27308 ft | 404 kts | 219° |
| 2026-04-30 20:43 | 40.71877 | 9.57586 | 26855 ft | 410 kts | 208° |
| 2026-04-30 20:43 | 40.69231 | 9.56213 | 26383 ft | 408 kts | 207° |
| 2026-04-30 20:43 | 40.66603 | 9.54873 | 25917 ft | 405 kts | 207° |
| 2026-04-30 20:44 | 40.61381 | 9.52220 | 25028 ft | 398 kts | 207° |
| 2026-04-30 20:44 | 40.58837 | 9.50925 | 24598 ft | 395 kts | 207° |
| 2026-04-30 20:44 | 40.53746 | 9.48338 | 23723 ft | 389 kts | 207° |
| 2026-04-30 20:45 | 40.48733 | 9.45795 | 22838 ft | 383 kts | 207° |
| 2026-04-30 20:45 | 40.46261 | 9.44542 | 22399 ft | 381 kts | 207° |
| 2026-04-30 20:45 | 40.43817 | 9.43304 | 21973 ft | 379 kts | 207° |
| 2026-04-30 20:46 | 40.36493 | 9.39599 | 20635 ft | 373 kts | 206° |
| 2026-04-30 20:46 | 40.34097 | 9.38389 | 20184 ft | 372 kts | 206° |
| 2026-04-30 20:47 | 40.29278 | 9.35960 | 19285 ft | 369 kts | 206° |
| 2026-04-30 20:47 | 40.26920 | 9.34773 | 18849 ft | 367 kts | 205° |
| 2026-04-30 20:48 | 40.22152 | 9.32372 | 17964 ft | 364 kts | 205° |
| 2026-04-30 20:48 | 40.19821 | 9.31201 | 17534 ft | 363 kts | 205° |
| 2026-04-30 20:48 | 40.17457 | 9.30014 | 17094 ft | 362 kts | 205° |
| 2026-04-30 20:48 | 40.15107 | 9.28836 | 16655 ft | 361 kts | 205° |
| 2026-04-30 20:49 | 40.12752 | 9.27656 | 16216 ft | 360 kts | 205° |
| 2026-04-30 20:49 | 40.10435 | 9.26495 | 15782 ft | 358 kts | 205° |
| 2026-04-30 20:49 | 40.08106 | 9.25330 | 15343 ft | 357 kts | 205° |
| 2026-04-30 20:50 | 40.03479 | 9.23016 | 14476 ft | 353 kts | 205° |
| 2026-04-30 20:50 | 40.01216 | 9.21885 | 14060 ft | 351 kts | 204° |
| 2026-04-30 20:50 | 39.98927 | 9.20742 | 13629 ft | 349 kts | 204° |
| 2026-04-30 20:50 | 39.96645 | 9.19604 | 13186 ft | 348 kts | 204° |
| 2026-04-30 20:51 | 39.94410 | 9.18489 | 12755 ft | 346 kts | 204° |
| 2026-04-30 20:51 | 39.89906 | 9.16247 | 11886 ft | 343 kts | 204° |
| 2026-04-30 20:51 | 39.87688 | 9.15143 | 11449 ft | 342 kts | 204° |
| 2026-04-30 20:52 | 39.85451 | 9.14128 | 11014 ft | 342 kts | 199° |
| 2026-04-30 20:52 | 39.83133 | 9.13300 | 10594 ft | 340 kts | 197° |
| 2026-04-30 20:52 | 39.78688 | 9.11816 | 10282 ft | 316 kts | 197° |
| 2026-04-30 20:53 | 39.76562 | 9.11109 | 10154 ft | 304 kts | 197° |
| 2026-04-30 20:53 | 39.74534 | 9.10430 | 9835 ft | 301 kts | 197° |
| 2026-04-30 20:53 | 39.72524 | 9.09754 | 9475 ft | 299 kts | 197° |
| 2026-04-30 20:54 | 39.68525 | 9.08411 | 8766 ft | 295 kts | 197° |
| 2026-04-30 20:54 | 39.66550 | 9.07748 | 8414 ft | 293 kts | 196° |
| 2026-04-30 20:54 | 39.64579 | 9.07088 | 8072 ft | 291 kts | 195° |
| 2026-04-30 20:55 | 39.60563 | 9.07005 | 7361 ft | 289 kts | 169° |
| 2026-04-30 20:55 | 39.58641 | 9.07531 | 7267 ft | 275 kts | 168° |
| 2026-04-30 20:55 | 39.56793 | 9.07859 | 7223 ft | 259 kts | 181° |
| 2026-04-30 20:56 | 39.53364 | 9.07390 | 7112 ft | 244 kts | 200° |
| 2026-04-30 20:56 | 39.51880 | 9.06362 | 6825 ft | 241 kts | 218° |
| 2026-04-30 20:56 | 39.49246 | 9.03743 | 6163 ft | 240 kts | 219° |
| 2026-04-30 20:57 | 39.47912 | 9.02430 | 5747 ft | 244 kts | 218° |
| 2026-04-30 20:57 | 39.46534 | 9.01099 | 5357 ft | 246 kts | 217° |
| 2026-04-30 20:57 | 39.45156 | 8.99787 | 4987 ft | 247 kts | 217° |
| 2026-04-30 20:58 | 39.42374 | 8.97162 | 4275 ft | 247 kts | 216° |
| 2026-04-30 20:58 | 39.41025 | 8.95895 | 4012 ft | 236 kts | 216° |
| 2026-04-30 20:58 | 39.39713 | 8.94662 | 3641 ft | 230 kts | 215° |
| 2026-04-30 20:58 | 39.38440 | 8.93465 | 3283 ft | 222 kts | 215° |
| 2026-04-30 20:59 | 39.35706 | 8.92029 | 2336 ft | 209 kts | 169° |
| 2026-04-30 20:59 | 39.34538 | 8.92814 | 2197 ft | 175 kts | 129° |
| 2026-04-30 21:00 | 39.33380 | 8.95178 | 1993 ft | 149 kts | 119° |
| 2026-04-30 21:00 | 39.32138 | 8.97195 | 1588 ft | 137 kts | 130° |
| 2026-04-30 21:01 | 39.30792 | 8.98920 | 1245 ft | 137 kts | 134° |
| 2026-04-30 21:01 | 39.30074 | 8.99751 | 1061 ft | 137 kts | 135° |
| 2026-04-30 21:01 | 39.28635 | 9.01373 | 728 ft | 136 kts | 135° |
| 2026-04-30 21:02 | 39.27936 | 9.02218 | 506 ft | 135 kts | 134° |
| 2026-04-30 21:02 | 39.27243 | 9.03029 | 314 ft | 135 kts | 137° |
| 2026-04-30 21:02 | 39.26533 | 9.03829 | 161 ft | 135 kts | 137° |
| 2026-04-30 21:02 | 39.25838 | 9.04632 | 26 ft | 132 kts | 136° |
| 2026-04-30 21:03 | 39.25245 | 9.05323 | 22 ft | 90 kts | 138° |
| 2026-04-30 21:03 | 39.24875 | 9.05747 | 22 ft | 57 kts | 139° |
| 2026-04-30 21:03 | 39.24699 | 9.05964 | 22 ft | 21 kts | 118° |
| 2026-04-30 21:03 | 39.24704 | 9.06111 | 22 ft | 15 kts | 62° |
| 2026-04-30 21:04 | 39.24790 | 9.06115 | 22 ft | 14 kts | 321° |
| 2026-04-30 21:04 | 39.24868 | 9.06025 | 22 ft | 15 kts | 317° |
| 2026-04-30 21:04 | 39.25027 | 9.05843 | 22 ft | 12 kts | 319° |
| 2026-04-30 21:05 | 39.25072 | 9.05793 | 22 ft | 8 kts | 327° |
| 2026-04-30 21:05 | 39.25126 | 9.05800 | 22 ft | 8 kts | 39° |
| 2026-04-30 21:05 | 39.25164 | 9.05868 | 22 ft | 9 kts | 55° |
| 2026-04-30 21:05 | 39.25212 | 9.05899 | 22 ft | 5 kts | 8° |
| 2026-04-30 21:06 | 39.25223 | 9.05901 | 22 ft | 0 kts | 8° |